Time;durP1;ratioP1;P1;durP2;ratioP2;P2;SDS_P1;SDS_P2;PMS_P1;PMS_P2;Temp;Humidity;BMP_temperature;BMP_pressure;BME280_temperature;BME280_humidity;BME280_pressure;Samples;Min_cycle;Max_cycle;Signal;HPM_P1;HPM_P2
2021/12/28 00:02:07;;;;;;;34.90;2.55;;;9.90;64.30;;;;;;4991237;28;20205;-74
2021/12/28 00:04:34;;;;;;;28.70;2.30;;;;;;;;;;4979901;28;20200;-74
2021/12/28 00:06:59;;;;;;;25.15;1.83;;;10.40;60.00;;;;;;4993078;28;20499;-74
2021/12/28 00:09:25;;;;;;;29.93;2.53;;;;;;;;;;4993706;28;20239;-74
2021/12/28 00:11:51;;;;;;;28.10;2.37;;;;;;;;;;4992735;28;20206;-74
2021/12/28 00:14:19;;;;;;;17.00;1.80;;;;;;;;;;4992429;28;20423;-74
2021/12/28 00:19:30;;;;;;;31.75;2.10;;;;;;;;;;4993405;28;20270;-74
2021/12/28 00:21:56;;;;;;;34.15;2.30;;;;;;;;;;4992749;28;20247;-74
2021/12/28 00:24:22;;;;;;;45.33;2.70;;;;;;;;;;4992824;28;20226;-74
2021/12/28 00:26:48;;;;;;;24.92;2.35;;;;;;;;;;4992381;28;20467;-74
2021/12/28 00:29:14;;;;;;;47.63;2.38;;;;;;;;;;4993236;28;20220;-74
2021/12/28 00:31:40;;;;;;;15.23;1.60;;;;;;;;;;4992801;28;20214;-74
2021/12/28 00:34:06;;;;;;;34.92;2.30;;;;;;;;;;4993126;28;20964;-74
2021/12/28 00:36:32;;;;;;;35.43;2.53;;;;;;;;;;4992641;28;20193;-74
2021/12/28 00:39:00;;;;;;;36.13;2.40;;;;;;;;;;4975690;28;20453;-74
2021/12/28 00:41:26;;;;;;;29.98;2.20;;;;;;;;;;4993026;28;20186;-74
2021/12/28 00:43:52;;;;;;;28.10;2.22;;;;;;;;;;4992856;28;20191;-74
2021/12/28 00:46:18;;;;;;;28.27;2.30;;;;;;;;;;4991731;28;20668;-74
2021/12/28 00:48:54;;;;;;;14.75;1.90;;;;;;;;;;4993036;28;20185;-74
2021/12/28 00:51:19;;;;;;;31.27;2.67;;;11.90;49.70;;;;;;4990940;28;20197;-74
2021/12/28 00:53:45;;;;;;;45.17;2.80;;;11.90;49.70;;;;;;4992235;28;20223;-75
2021/12/28 00:56:11;;;;;;;63.53;3.50;;;;;;;;;;5003677;28;20178;-74
2021/12/28 00:58:37;;;;;;;61.07;2.93;;;;;;;;;;4993168;28;20170;-74
2021/12/28 01:01:04;;;;;;;29.00;2.15;;;11.60;49.50;;;;;;4985251;28;20438;-74
2021/12/28 01:03:30;;;;;;;19.63;1.87;;;11.40;50.60;;;;;;4991217;28;20356;-74
2021/12/28 01:05:56;;;;;;;47.50;2.80;;;;;;;;;;4992706;28;20535;-74
2021/12/28 01:08:22;;;;;;;25.15;1.77;;;11.30;50.40;;;;;;4991867;28;20421;-74
2021/12/28 01:10:50;;;;;;;18.90;1.90;;;11.30;50.40;;;;;;4992578;28;20189;-74
2021/12/28 01:13:17;;;;;;;27.77;1.92;;;;;;;;;;4993171;28;20249;-74
2021/12/28 01:15:43;;;;;;;33.42;2.17;;;;;;;;;;4992432;28;20182;-74
2021/12/28 01:18:09;;;;;;;17.77;1.60;;;;;;;;;;4991775;28;20220;-74
2021/12/28 01:20:35;;;;;;;38.13;2.47;;;10.90;52.60;;;;;;4992032;28;20668;-74
2021/12/28 01:23:02;;;;;;;41.10;2.70;;;;;;;;;;4991645;28;20209;-74
2021/12/28 01:25:28;;;;;;;39.92;2.80;;;;;;;;;;4991917;28;20948;-74
2021/12/28 01:27:54;;;;;;;41.15;2.53;;;10.70;55.00;;;;;;4991439;28;20213;-74
2021/12/28 01:30:21;;;;;;;30.10;2.37;;;10.70;54.40;;;;;;4992001;28;20803;-74
2021/12/28 01:32:48;;;;;;;40.47;2.50;;;10.60;55.20;;;;;;4992210;28;20198;-74
2021/12/28 01:35:15;;;;;;;30.30;2.05;;;10.30;57.20;;;;;;4992156;28;20193;-74
2021/12/28 01:37:42;;;;;;;36.53;2.30;;;10.30;57.80;;;;;;4990282;28;20173;-74
2021/12/28 01:40:10;;;;;;;29.65;2.20;;;;;;;;;;4991932;28;20189;-74
2021/12/28 01:42:54;;;;;;;27.95;1.95;;;;;;;;;;4992081;28;20202;-74
2021/12/28 01:45:30;;;;;;;21.20;1.85;;;10.20;57.80;;;;;;4991810;28;20236;-74
2021/12/28 01:47:56;;;;;;;36.95;2.45;;;;;;;;;;4991250;28;20201;-74
2021/12/28 01:50:22;;;;;;;44.47;3.90;;;;;;;;;;4990431;28;20243;-74
2021/12/28 01:52:48;;;;;;;24.75;2.30;;;;;;;;;;4992027;28;20441;-74
2021/12/28 01:55:15;;;;;;;35.65;2.20;;;;;;;;;;4991024;28;20269;-75
2021/12/28 01:57:41;;;;;;;26.73;2.15;;;10.70;53.60;;;;;;4992099;28;20595;-74
2021/12/28 02:00:07;;;;;;;34.85;2.25;;;10.70;53.50;;;;;;4991396;28;20202;-74
2021/12/28 02:02:33;;;;;;;16.65;2.03;;;10.80;53.20;;;;;;4992764;28;20209;-74
2021/12/28 02:04:59;;;;;;;30.90;2.27;;;;;;;;;;4993247;28;20189;-74
2021/12/28 02:07:25;;;;;;;29.50;2.70;;;11.10;51.40;;;;;;4992450;28;20569;-74
2021/12/28 02:09:51;;;;;;;31.83;2.13;;;;;;;;;;4992260;28;20186;-74
2021/12/28 02:12:17;;;;;;;25.70;2.00;;;;;;;;;;4992152;28;20204;-74
2021/12/28 02:14:44;;;;;;;39.50;2.50;;;;;;;;;;4991716;28;20423;-74
2021/12/28 02:17:11;;;;;;;30.33;2.13;;;;;;;;;;4990292;28;20328;-74
2021/12/28 02:19:37;;;;;;;23.98;2.00;;;;;;;;;;4991353;28;20178;-74
2021/12/28 02:22:03;;;;;;;28.30;2.55;;;;;;;;;;4980102;28;20887;-74
2021/12/28 02:24:29;;;;;;;23.42;2.30;;;;;;;;;;4991591;28;20184;-74
2021/12/28 02:26:55;;;;;;;27.40;1.95;;;;;;;;;;4991165;28;20284;-74
2021/12/28 02:29:21;;;;;;;19.17;1.73;;;;;;;;;;4991893;28;20796;-74
2021/12/28 02:31:49;;;;;;;34.67;2.25;;;;;;;;;;4990763;28;20541;-74
2021/12/28 02:34:15;;;;;;;24.45;1.95;;;11.00;49.70;;;;;;4991235;28;20177;-74
2021/12/28 02:36:41;;;;;;;35.05;2.40;;;;;;;;;;4994420;28;20286;-74
2021/12/28 02:39:07;;;;;;;28.80;2.25;;;;;;;;;;4995127;28;20914;-74
2021/12/28 02:41:33;;;;;;;31.13;2.10;;;;;;;;;;4994400;28;20212;-74
2021/12/28 02:44:02;;;;;;;30.50;2.00;;;10.60;52.00;;;;;;4994698;28;20186;-74
2021/12/28 02:46:28;;;;;;;29.15;3.33;;;;;;;;;;4994060;28;20198;-74
2021/12/28 02:48:54;;;;;;;31.97;2.43;;;;;;;;;;4994699;28;20189;-74
2021/12/28 02:51:20;;;;;;;26.95;2.10;;;;;;;;;;4992905;28;20971;-74
2021/12/28 02:53:46;;;;;;;32.35;2.22;;;;;;;;;;4991595;28;20201;-74
2021/12/28 02:56:14;;;;;;;61.15;3.38;;;10.40;52.60;;;;;;4991896;28;20657;-74
2021/12/28 02:58:44;;;;;;;21.25;1.73;;;10.60;51.60;;;;;;4994757;28;20845;-74
2021/12/28 03:01:10;;;;;;;33.78;2.40;;;;;;;;;;4994462;28;20607;-75
2021/12/28 03:03:37;;;;;;;29.05;2.10;;;10.80;51.20;;;;;;4991893;28;20177;-75
2021/12/28 03:06:05;;;;;;;47.40;2.78;;;;;;;;;;4993982;28;20226;-75
2021/12/28 03:08:32;;;;;;;25.33;2.03;;;;;;;;;;4994643;28;20182;-75
2021/12/28 03:11:01;;;;;;;27.58;2.17;;;10.60;51.80;;;;;;4994499;28;20643;-75
2021/12/28 03:13:40;;;;;;;24.10;1.90;;;;;;;;;;4994369;28;20189;-75
2021/12/28 03:16:07;;;;;;;77.53;4.00;;;;;;;;;;4992947;28;20308;-75
2021/12/28 03:18:34;;;;;;;25.17;2.00;;;10.30;54.30;;;;;;4994843;28;20178;-75
2021/12/28 03:21:00;;;;;;;48.83;2.42;;;;;;;;;;4994395;28;20177;-75
2021/12/28 03:23:27;;;;;;;58.65;3.42;;;;;;;;;;4993008;28;20170;-75
2021/12/28 03:25:54;;;;;;;30.38;2.08;;;10.50;53.40;;;;;;4994508;28;20178;-75
2021/12/28 03:28:23;;;;;;;26.33;2.00;;;10.80;52.00;;;;;;4994315;28;21823;-75
2021/12/28 03:30:52;;;;;;;29.65;2.13;;;;;;;;;;4994600;28;20176;-75
2021/12/28 03:33:19;;;;;;;35.70;2.42;;;10.80;50.80;;;;;;4994447;28;20209;-75
2021/12/28 03:35:45;;;;;;;26.73;2.10;;;;;;;;;;4993942;28;20225;-75
2021/12/28 03:38:11;;;;;;;21.57;2.07;;;;;;;;;;4994958;28;20964;-75
2021/12/28 03:40:37;;;;;;;25.80;1.90;;;;;;;;;;4994665;28;20428;-75
2021/12/28 03:43:03;;;;;;;26.58;2.33;;;;;;;;;;4994394;28;20594;-75
2021/12/28 03:45:30;;;;;;;30.33;2.25;;;;;;;;;;4983878;28;20192;-74
2021/12/28 03:47:56;;;;;;;24.42;1.95;;;11.20;49.70;;;;;;4993435;28;20201;-75
2021/12/28 03:50:25;;;;;;;24.93;2.00;;;;;;;;;;4994414;28;20264;-75
2021/12/28 03:52:51;;;;;;;28.17;2.03;;;;;;;;;;4992736;28;20568;-75
2021/12/28 03:55:17;;;;;;;41.65;2.53;;;;;;;;;;4994005;28;20425;-75
2021/12/28 03:57:43;;;;;;;35.57;2.40;;;;;;;;;;4992948;28;20728;-75
2021/12/28 04:00:12;;;;;;;25.43;1.97;;;;;;;;;;4993895;28;20480;-75
2021/12/28 04:02:38;;;;;;;31.17;2.35;;;11.10;49.00;;;;;;4993358;28;20449;-75
2021/12/28 04:05:04;;;;;;;28.97;2.03;;;10.80;51.00;;;;;;4993924;28;20186;-75
2021/12/28 04:07:30;;;;;;;33.05;2.50;;;;;;;;;;4992754;28;20692;-75
2021/12/28 04:10:00;;;;;;;21.87;1.80;;;11.00;51.30;;;;;;4994027;28;20182;-75
2021/12/28 04:12:26;;;;;;;29.25;2.03;;;;;;;;;;4993381;28;20456;-75
2021/12/28 04:14:52;;;;;;;31.40;2.33;;;;;;;;;;4993476;28;20229;-75
2021/12/28 04:17:18;;;;;;;31.98;2.33;;;;;;;;;;4992964;28;20417;-75
2021/12/28 04:19:44;;;;;;;23.40;1.90;;;;;;;;;;4993633;28;20846;-75
2021/12/28 04:22:10;;;;;;;22.60;2.30;;;;;;;;;;4992737;28;20468;-75
2021/12/28 04:24:36;;;;;;;28.63;2.23;;;;;;;;;;4993187;28;20444;-75
2021/12/28 04:27:02;;;;;;;23.73;1.83;;;;;;;;;;4992000;28;20980;-75
2021/12/28 04:29:28;;;;;;;25.30;2.10;;;;;;;;;;4993148;28;20512;-75
2021/12/28 04:31:54;;;;;;;29.50;1.93;;;;;;;;;;4993141;28;20480;-75
2021/12/28 04:34:22;;;;;;;28.53;2.27;;;11.10;55.90;;;;;;4993039;28;20916;-75
2021/12/28 04:36:50;;;;;;;25.77;2.00;;;;;;;;;;4992640;28;20435;-75
2021/12/28 04:39:16;;;;;;;25.10;1.97;;;11.10;57.40;;;;;;4993352;28;20185;-75
2021/12/28 04:41:42;;;;;;;31.37;2.33;;;10.90;58.80;;;;;;4992827;28;20449;-75
2021/12/28 04:44:11;;;;;;;35.97;2.20;;;10.80;59.30;;;;;;4993108;28;20495;-75
2021/12/28 04:46:37;;;;;;;38.97;3.23;;;;;;;;;;4992415;28;20237;-75
2021/12/28 04:49:03;;;;;;;28.30;2.00;;;10.90;60.50;;;;;;4992736;28;20425;-75
2021/12/28 04:51:29;;;;;;;24.33;1.85;;;;;;;;;;4992395;28;20441;-75
2021/12/28 04:53:59;;;;;;;43.38;2.60;;;;;;;;;;4992210;28;20297;-75
2021/12/28 04:56:25;;;;;;;32.65;2.30;;;;;;;;;;4990680;28;20184;-79
2021/12/28 04:58:51;;;;;;;34.10;2.53;;;;;;;;;;4989569;28;20775;-75
2021/12/28 05:01:17;;;;;;;28.67;2.05;;;;;;;;;;4989998;28;20455;-75
2021/12/28 05:03:43;;;;;;;44.43;3.07;;;;;;;;;;4991704;28;20178;-75
2021/12/28 05:06:09;;;;;;;19.02;5.07;;;11.30;58.30;;;;;;5006333;23;21083;-70
2021/12/28 05:08:35;;;;;;;14.10;2.97;;;11.20;58.50;;;;;;4989772;28;20276;-69
2021/12/28 05:11:01;;;;;;;9.70;1.90;;;11.20;60.40;;;;;;4988259;28;20191;-68
2021/12/28 05:13:26;;;;;;;10.38;1.85;;;11.00;59.00;;;;;;4992287;28;20201;-68
2021/12/28 05:15:53;;;;;;;8.03;1.90;;;10.80;61.80;;;;;;4992234;28;20244;-69
2021/12/28 05:18:19;;;;;;;7.37;1.63;;;10.90;60.10;;;;;;4991997;28;20197;-68
2021/12/28 05:20:45;;;;;;;11.50;2.23;;;11.10;60.20;;;;;;4992303;28;20425;-68
2021/12/28 05:23:11;;;;;;;11.23;2.47;;;11.30;59.10;;;;;;4992013;28;20433;-69
2021/12/28 05:25:37;;;;;;;9.57;1.80;;;11.30;56.20;;;;;;4992487;28;20213;-69
2021/12/28 05:28:04;;;;;;;14.47;2.40;;;11.60;55.70;;;;;;4991683;28;20456;-69
2021/12/28 05:30:29;;;;;;;9.50;1.90;;;11.40;55.70;;;;;;4992218;28;20216;-69
2021/12/28 05:32:55;;;;;;;8.63;1.73;;;11.30;56.10;;;;;;4991988;28;20865;-69
2021/12/28 05:35:21;;;;;;;10.33;1.97;;;11.30;56.50;;;;;;4991515;28;20205;-70
2021/12/28 05:37:47;;;;;;;6.33;1.57;;;11.20;57.30;;;;;;4991302;28;20425;-70
2021/12/28 05:40:14;;;;;;;10.10;2.07;;;11.40;55.80;;;;;;4992179;28;20269;-70
2021/12/28 05:42:40;;;;;;;11.63;2.20;;;11.10;55.70;;;;;;4991447;28;20436;-69
2021/12/28 05:45:06;;;;;;;12.10;2.30;;;10.70;60.10;;;;;;4991978;28;20425;-69
2021/12/28 05:47:32;;;;;;;9.67;2.00;;;10.70;60.60;;;;;;4990487;28;20514;-69
2021/12/28 05:49:57;;;;;;;9.37;1.80;;;11.20;57.80;;;;;;4991726;28;20802;-69
2021/12/28 05:52:24;;;;;;;10.53;2.30;;;11.20;56.10;;;;;;4992027;28;20182;-69
2021/12/28 05:54:49;;;;;;;5.80;1.57;;;11.00;56.00;;;;;;4991602;28;20549;-70
2021/12/28 05:57:15;;;;;;;9.10;2.17;;;11.10;56.00;;;;;;4990174;28;20444;-70
2021/12/28 05:59:41;;;;;;;11.67;2.27;;;11.30;54.50;;;;;;4990664;28;20665;-69
2021/12/28 06:02:07;;;;;;;8.20;1.60;;;11.90;54.10;;;;;;4995511;28;20433;-70
2021/12/28 06:04:33;;;;;;;9.97;2.13;;;11.50;53.60;;;;;;4991048;28;20288;-69
2021/12/28 06:06:59;;;;;;;19.33;3.70;;;11.70;52.60;;;;;;4990503;28;20496;-71
2021/12/28 06:09:25;;;;;;;15.00;4.70;;;11.90;50.30;;;;;;4996487;28;20440;-71
2021/12/28 06:11:51;;;;;;;6.13;1.77;;;11.90;48.70;;;;;;4997656;28;20421;-70
2021/12/28 06:14:17;;;;;;;9.03;2.30;;;12.10;50.00;;;;;;4995108;28;20518;-70
2021/12/28 06:16:43;;;;;;;11.93;2.60;;;11.50;47.70;;;;;;4994802;28;20204;-70
2021/12/28 06:19:08;;;;;;;13.17;2.33;;;11.80;48.70;;;;;;5001577;28;20947;-70
2021/12/28 06:21:36;;;;;;;11.07;2.10;;;11.70;49.60;;;;;;4995301;28;20815;-71
2021/12/28 06:24:04;;;;;;;9.63;1.90;;;11.70;51.10;;;;;;4995046;28;20464;-73
2021/12/28 06:26:30;;;;;;;10.63;2.00;;;11.70;51.30;;;;;;4993984;28;20556;-71
2021/12/28 06:28:57;;;;;;;10.13;1.90;;;11.60;52.80;;;;;;4995245;28;20441;-70
2021/12/28 06:31:23;;;;;;;8.27;2.17;;;11.60;52.80;;;;;;4993635;28;20480;-70
2021/12/28 06:33:49;;;;;;;9.83;2.07;;;11.70;50.60;;;;;;4993819;28;20516;-70
2021/12/28 06:36:15;;;;;;;12.50;2.57;;;12.10;49.30;;;;;;4994454;28;20863;-71
2021/12/28 06:38:40;;;;;;;11.90;2.43;;;12.40;47.30;;;;;;4994115;28;20424;-70
2021/12/28 06:41:07;;;;;;;10.07;2.07;;;12.30;46.60;;;;;;4994243;28;20196;-72
2021/12/28 06:43:33;;;;;;;7.23;1.80;;;12.20;47.50;;;;;;4993342;28;20182;-70
2021/12/28 06:45:58;;;;;;;10.07;2.20;;;12.40;47.60;;;;;;4992648;28;20456;-71
2021/12/28 06:48:24;;;;;;;10.27;2.13;;;12.50;45.90;;;;;;4992649;28;20467;-71
2021/12/28 06:50:50;;;;;;;9.67;2.00;;;12.70;45.80;;;;;;4994626;28;20181;-70
2021/12/28 06:53:17;;;;;;;13.63;2.40;;;12.40;45.50;;;;;;4994267;28;20174;-73
2021/12/28 06:55:42;;;;;;;11.00;2.33;;;12.40;46.10;;;;;;4992911;28;20440;-72
2021/12/28 06:58:08;;;;;;;11.67;2.07;;;12.80;45.10;;;;;;4993969;28;20440;-71
2021/12/28 07:00:37;;;;;;;10.47;2.00;;;12.30;45.80;;;;;;4993846;28;20178;-70
2021/12/28 07:03:04;;;;;;;9.70;1.80;;;12.40;44.70;;;;;;4994487;28;20170;-71
2021/12/28 07:05:30;;;;;;;10.17;2.07;;;12.20;45.70;;;;;;4992907;28;21013;-69
2021/12/28 07:07:56;;;;;;;10.53;1.97;;;12.30;45.80;;;;;;4993595;28;20566;-69
2021/12/28 07:10:22;;;;;;;10.37;2.20;;;12.30;45.20;;;;;;4993702;28;20472;-68
2021/12/28 07:12:50;;;;;;;13.10;2.30;;;12.50;45.20;;;;;;4994248;28;20268;-70
2021/12/28 07:15:20;;;;;;;8.60;1.97;;;12.50;44.90;;;;;;4993424;28;20437;-69
2021/12/28 07:17:46;;;;;;;9.63;1.90;;;12.70;44.60;;;;;;4993158;28;20444;-70
2021/12/28 07:20:13;;;;;;;12.40;2.60;;;12.40;44.80;;;;;;4993110;28;20429;-70
2021/12/28 07:22:40;;;;;;;7.77;1.70;;;12.60;44.50;;;;;;4993663;28;20425;-70
2021/12/28 07:25:07;;;;;;;10.73;1.90;;;12.60;45.20;;;;;;4993413;28;20424;-70
2021/12/28 07:27:32;;;;;;;12.57;2.43;;;12.50;46.30;;;;;;4993512;28;20458;-70
2021/12/28 07:29:58;;;;;;;12.30;2.50;;;12.20;46.10;;;;;;4992592;28;20451;-69
2021/12/28 07:32:24;;;;;;;10.00;2.17;;;12.40;45.60;;;;;;4992412;28;20179;-70
2021/12/28 07:34:49;;;;;;;11.33;2.57;;;12.70;44.60;;;;;;4992054;28;20170;-71
2021/12/28 07:37:15;;;;;;;13.50;2.70;;;12.60;44.90;;;;;;4990616;28;20293;-69
2021/12/28 07:39:41;;;;;;;16.90;2.80;;;12.80;44.80;;;;;;4990673;28;20468;-69
2021/12/28 07:42:07;;;;;;;9.93;2.03;;;12.30;45.90;;;;;;4989096;28;20197;-70
2021/12/28 07:44:33;;;;;;;10.43;2.20;;;12.40;46.30;;;;;;4987978;28;20561;-70
2021/12/28 07:46:58;;;;;;;11.13;2.30;;;12.60;45.80;;;;;;4989558;28;20468;-70
2021/12/28 07:49:24;;;;;;;10.07;2.10;;;12.80;45.30;;;;;;4993025;28;20174;-70
2021/12/28 07:51:50;;;;;;;10.23;2.00;;;13.10;45.80;;;;;;4992125;28;20202;-71
2021/12/28 07:54:16;;;;;;;8.97;2.13;;;12.90;46.50;;;;;;4992147;28;20178;-77
2021/12/28 07:56:41;;;;;;;8.57;1.77;;;13.10;45.70;;;;;;4992898;28;20484;-77
2021/12/28 07:59:08;;;;;;;14.43;2.70;;;13.20;44.70;;;;;;4993339;28;20196;-77
2021/12/28 08:01:34;;;;;;;8.60;1.83;;;13.40;44.30;;;;;;4993628;28;20654;-77
2021/12/28 08:04:00;;;;;;;9.33;2.03;;;13.40;43.50;;;;;;4995772;28;20825;-74
2021/12/28 08:06:26;;;;;;;11.10;2.47;;;13.00;45.00;;;;;;4991917;28;20945;-71
2021/12/28 08:08:52;;;;;;;9.03;2.03;;;13.40;45.40;;;;;;4993307;28;20465;-71
2021/12/28 08:11:18;;;;;;;13.17;2.07;;;13.00;45.40;;;;;;4993414;28;20182;-72
2021/12/28 08:13:44;;;;;;;12.90;2.07;;;13.10;44.60;;;;;;4991270;28;20432;-72
2021/12/28 08:16:09;;;;;;;22.13;3.43;;;13.10;46.10;;;;;;4992214;28;20269;-72
2021/12/28 08:18:35;;;;;;;11.33;1.90;;;12.80;45.60;;;;;;4993302;28;20216;-71
2021/12/28 08:21:01;;;;;;;22.40;3.87;;;13.00;45.20;;;;;;4999772;28;20186;-72
2021/12/28 08:23:27;;;;;;;20.60;2.87;;;13.50;44.80;;;;;;4991679;28;20305;-72
2021/12/28 08:25:52;;;;;;;11.63;2.17;;;13.40;44.10;;;;;;4993610;28;20383;-72
2021/12/28 08:28:18;;;;;;;13.93;2.20;;;13.50;43.40;;;;;;4993366;28;20460;-71
2021/12/28 08:30:44;;;;;;;12.33;2.03;;;13.60;43.00;;;;;;4993537;28;20707;-72
2021/12/28 08:33:10;;;;;;;13.33;2.00;;;13.30;45.00;;;;;;4993353;28;20178;-72
2021/12/28 08:35:39;;;;;;;14.33;2.40;;;13.30;44.30;;;;;;4991827;28;21426;-72
2021/12/28 08:38:06;;;;;;;8.90;1.80;;;13.60;45.10;;;;;;4993401;28;20187;-72
2021/12/28 08:40:32;;;;;;;10.80;2.00;;;13.50;44.80;;;;;;4992013;28;20430;-69
2021/12/28 08:42:58;;;;;;;16.37;2.43;;;13.50;43.50;;;;;;4992309;28;20433;-68
2021/12/28 08:45:24;;;;;;;12.17;1.93;;;13.40;44.00;;;;;;4992579;28;20881;-68
2021/12/28 08:47:50;;;;;;;11.03;2.03;;;13.40;46.30;;;;;;4992456;28;20245;-68
2021/12/28 08:50:18;;;;;;;12.90;2.20;;;13.50;44.30;;;;;;4992483;28;20170;-67
2021/12/28 08:52:44;;;;;;;10.73;1.90;;;13.50;44.60;;;;;;4992271;28;20415;-69
2021/12/28 08:55:10;;;;;;;13.03;2.23;;;13.70;43.30;;;;;;4991631;28;20434;-68
2021/12/28 08:57:37;;;;;;;11.90;2.00;;;13.70;44.10;;;;;;4992113;28;20902;-69
2021/12/28 09:00:09;;;;;;;10.57;1.90;;;14.00;43.50;;;;;;4991718;28;20436;-69
2021/12/28 09:02:35;;;;;;;14.63;2.70;;;14.10;42.60;;;;;;4991650;28;20433;-69
2021/12/28 09:05:01;;;;;;;17.30;2.57;;;14.20;42.60;;;;;;4991280;28;20485;-68
2021/12/28 09:07:27;;;;;;;11.90;1.97;;;14.10;43.30;;;;;;4992273;28;20251;-68
2021/12/28 09:09:52;;;;;;;11.13;1.97;;;14.00;43.60;;;;;;4991873;28;20498;-68
2021/12/28 09:12:18;;;;;;;12.60;2.13;;;13.90;44.60;;;;;;4992372;28;20586;-69
2021/12/28 09:14:44;;;;;;;16.90;2.60;;;14.30;44.30;;;;;;4991135;28;20607;-69
2021/12/28 09:17:10;;;;;;;12.33;1.93;;;14.10;43.70;;;;;;4992212;28;20574;-68
2021/12/28 09:19:36;;;;;;;11.83;2.00;;;14.40;43.70;;;;;;4992124;28;20186;-68
2021/12/28 09:22:03;;;;;;;12.37;2.00;;;14.30;43.70;;;;;;4992014;28;20424;-68
2021/12/28 09:24:29;;;;;;;11.90;2.10;;;14.40;43.70;;;;;;4991948;28;20415;-68
2021/12/28 09:26:55;;;;;;;10.73;1.90;;;14.40;43.90;;;;;;4991564;28;20491;-67
2021/12/28 09:29:25;;;;;;;10.80;2.07;;;14.70;43.00;;;;;;4991868;28;20568;-67
2021/12/28 09:31:52;;;;;;;11.07;1.90;;;14.80;42.70;;;;;;4990729;28;20192;-67
2021/12/28 09:34:17;;;;;;;14.63;2.63;;;14.30;44.30;;;;;;4990706;28;20511;-68
2021/12/28 09:36:43;;;;;;;7.83;1.73;;;14.30;44.60;;;;;;4987033;28;20480;-69
2021/12/28 09:39:09;;;;;;;11.27;1.83;;;14.80;43.50;;;;;;4991884;28;20187;-69
2021/12/28 09:41:35;;;;;;;15.23;2.40;;;14.70;43.70;;;;;;4992168;28;20716;-69
2021/12/28 09:44:01;;;;;;;11.50;1.83;;;12.60;43.50;;;;;;4990846;28;20187;-70
2021/12/28 09:46:27;;;;;;;12.57;1.97;;;14.50;45.10;;;;;;4991125;28;20463;-70
2021/12/28 09:48:52;;;;;;;14.60;2.40;;;14.30;45.50;;;;;;4991465;28;20515;-69
2021/12/28 09:51:18;;;;;;;12.53;2.00;;;14.60;45.40;;;;;;4990516;28;20264;-70
2021/12/28 09:53:44;;;;;;;10.33;1.87;;;14.70;44.30;;;;;;4991004;28;20174;-69
2021/12/28 09:56:10;;;;;;;17.70;3.23;;;14.00;47.40;;;;;;4995168;28;20632;-69
2021/12/28 09:58:38;;;;;;;14.00;2.13;;;14.30;47.10;;;;;;4991443;28;20178;-70
2021/12/28 10:01:05;;;;;;;13.90;2.30;;;14.40;46.50;;;;;;4991594;28;20478;-69
2021/12/28 10:03:31;;;;;;;17.57;2.57;;;14.30;46.90;;;;;;4991472;28;20436;-70
2021/12/28 10:05:57;;;;;;;12.77;2.10;;;14.10;47.60;;;;;;4990342;28;20476;-69
2021/12/28 10:08:25;;;;;;;13.10;2.30;;;13.70;50.80;;;;;;4992196;28;20232;-69
2021/12/28 10:10:56;;;;;;;14.03;2.13;;;13.90;50.70;;;;;;4991462;28;20408;-69
2021/12/28 10:13:24;;;;;;;10.73;1.83;;;14.00;50.00;;;;;;4991426;28;20469;-69
2021/12/28 10:15:52;;;;;;;15.23;2.47;;;13.90;51.10;;;;;;4990227;28;20445;-68
2021/12/28 10:18:18;;;;;;;13.07;2.30;;;13.90;51.60;;;;;;4991380;28;20443;-70
2021/12/28 10:20:44;;;;;;;11.97;2.10;;;14.60;48.30;;;;;;4991038;28;20807;-70
2021/12/28 10:23:15;;;;;;;8.93;1.77;;;14.60;47.70;;;;;;4991473;28;20432;-69
2021/12/28 10:25:50;;;;;;;11.03;2.20;;;14.80;46.50;;;;;;4990068;28;20213;-69
2021/12/28 10:28:22;;;;;;;16.90;2.73;;;14.40;47.80;;;;;;4990454;28;20460;-70
2021/12/28 10:30:57;;;;;;;9.03;1.70;;;14.70;48.40;;;;;;4985752;28;20421;-70
2021/12/28 10:33:27;;;;;;;12.50;2.27;;;14.60;47.00;;;;;;4989384;28;20439;-68
2021/12/28 10:35:59;;;;;;;16.40;2.77;;;15.20;45.30;;;;;;4987936;28;20493;-71
2021/12/28 10:38:30;;;;;;;12.00;2.10;;;15.10;45.60;;;;;;4980242;28;20465;-69
2021/12/28 10:41:05;;;;;;;13.03;2.10;;;15.10;45.40;;;;;;4989995;28;20440;-70
2021/12/28 10:43:36;;;;;;;31.77;3.90;;;15.40;44.30;;;;;;4988909;28;20535;-69
2021/12/28 10:46:16;;;;;;;34.73;5.20;;;15.70;43.40;;;;;;4989892;28;20452;-70
2021/12/28 10:48:49;;;;;;;35.10;3.93;;;15.50;44.20;;;;;;4983021;28;20529;-69
2021/12/28 10:51:22;;;;;;;23.70;2.93;;;14.90;46.00;;;;;;4988744;28;20429;-69
2021/12/28 10:56:50;;;;;;;24.93;3.27;;;14.40;49.10;;;;;;4972321;28;20431;-70
2021/12/28 10:59:22;;;;;;;23.17;2.90;;;14.80;48.00;;;;;;4973800;28;20416;-69
2021/12/28 11:01:49;;;;;;;25.80;3.50;;;14.10;50.30;;;;;;4993793;28;20467;-69
2021/12/28 11:04:15;;;;;;;29.00;3.30;;;14.50;49.50;;;;;;4993939;28;20412;-69
2021/12/28 11:06:45;;;;;;;24.83;3.00;;;14.70;48.10;;;;;;4993659;28;20852;-69
2021/12/28 11:09:12;;;;;;;21.77;2.83;;;14.70;48.00;;;;;;4994764;28;20410;-70
2021/12/28 11:11:40;;;;;;;33.07;3.87;;;15.10;48.00;;;;;;4993508;28;20421;-69
2021/12/28 11:14:12;;;;;;;31.60;3.80;;;15.10;47.00;;;;;;4993182;28;20792;-70
2021/12/28 11:16:39;;;;;;;31.83;3.57;;;15.40;46.00;;;;;;4994323;28;20425;-69
2021/12/28 11:19:07;;;;;;;35.13;3.77;;;15.60;44.50;;;;;;4994614;28;20406;-69
2021/12/28 11:21:36;;;;;;;41.47;4.23;;;15.30;45.60;;;;;;4992711;28;20790;-70
2021/12/28 11:24:10;;;;;;;22.73;2.80;;;15.20;46.20;;;;;;4993763;28;20449;-70
2021/12/28 11:26:42;;;;;;;18.67;2.53;;;15.80;43.80;;;;;;4992501;28;20447;-69
2021/12/28 11:29:15;;;;;;;13.63;2.27;;;15.60;43.60;;;;;;4995785;28;20433;-69
2021/12/28 11:31:43;;;;;;;12.17;2.27;;;15.30;45.00;;;;;;4993729;28;20429;-69
2021/12/28 11:34:12;;;;;;;7.97;1.80;;;15.20;45.40;;;;;;5009369;28;20419;-70
2021/12/28 11:37:06;;;;;;;7.87;1.83;;;15.60;45.20;;;;;;5013333;28;20436;-70
2021/12/28 11:39:40;;;;;;;14.50;2.23;;;14.60;41.10;;;;;;4994491;28;20500;-70
2021/12/28 11:42:07;;;;;;;38.03;2.60;;;;;;;;;;5029547;22;20516;-77
2021/12/28 11:44:34;;;;;;;84.00;4.27;;;;;;;;;;5016440;28;20606;-77
2021/12/28 11:47:03;;;;;;;27.03;2.10;;;16.80;40.00;;;;;;5021263;28;20485;-76
2021/12/28 11:49:29;;;;;;;44.33;3.03;;;;;;;;;;4993791;28;20424;-75
2021/12/28 11:51:58;;;;;;;27.37;2.03;;;;;;;;;;5011192;28;20447;-76
2021/12/28 11:54:25;;;;;;;32.47;2.23;;;;;;;;;;5013700;28;20419;-75
2021/12/28 11:56:57;;;;;;;24.97;2.07;;;;;;;;;;5013420;28;20416;-76
2021/12/28 11:59:29;;;;;;;31.13;2.20;;;;;;;;;;5013302;28;20919;-77
2021/12/28 12:01:59;;;;;;;27.90;2.20;;;;;;;;;;5011483;28;20446;-76
2021/12/28 12:04:28;;;;;;;71.17;3.83;;;;;;;;;;5011789;28;20424;-76
2021/12/28 12:07:12;;;;;;;29.47;2.20;;;15.60;44.10;;;;;;5013233;28;20882;-76
2021/12/28 12:09:50;;;;;;;35.40;2.67;;;15.60;42.60;;;;;;5012191;28;20441;-76
2021/12/28 12:12:18;;;;;;;51.50;2.93;;;;;;;;;;5011981;28;20812;-77
2021/12/28 12:14:57;;;;;;;42.27;2.67;;;;;;;;;;5013596;28;20417;-76
2021/12/28 12:17:29;;;;;;;45.47;2.80;;;15.80;42.60;;;;;;5013670;28;20954;-77
2021/12/28 12:20:00;;;;;;;26.47;2.07;;;15.70;43.20;;;;;;5012909;28;20436;-76
2021/12/28 12:22:43;;;;;;;27.47;2.33;;;15.90;42.10;;;;;;5013204;28;21129;-76
2021/12/28 12:25:18;;;;;;;19.93;1.80;;;;;;;;;;5013201;28;20413;-76
2021/12/28 12:27:48;;;;;;;41.60;2.70;;;;;;;;;;5012684;28;20459;-77
2021/12/28 12:30:17;;;;;;;49.77;2.90;;;;;;;;;;5012839;28;20435;-76
2021/12/28 12:33:10;;;;;;;37.90;2.60;;;;;;;;;;5011541;28;20441;-78
2021/12/28 12:35:51;;;;;;;50.03;3.00;;;16.00;41.90;;;;;;4995117;28;20807;-77
2021/12/28 12:38:17;;;;;;;30.80;2.40;;;;;;;;;;5009382;28;20444;-76
2021/12/28 12:41:01;;;;;;;29.47;2.37;;;;;;;;;;5008976;28;20464;-77
2021/12/28 12:43:37;;;;;;;36.27;2.53;;;;;;;;;;5011924;28;20794;-76
2021/12/28 12:46:24;;;;;;;46.67;2.97;;;15.10;45.30;;;;;;5012366;28;20417;-76
2021/12/28 12:48:53;;;;;;;33.93;2.40;;;;;;;;;;5012822;28;20413;-75
2021/12/28 12:51:25;;;;;;;95.70;4.70;;;15.60;43.20;;;;;;5011501;28;21034;-75
2021/12/28 12:53:58;;;;;;;18.33;1.83;;;15.40;44.10;;;;;;5012105;28;20526;-75
2021/12/28 12:56:33;;;;;;;42.00;2.67;;;15.50;43.90;;;;;;5012272;28;20472;-76
2021/12/28 12:59:20;;;;;;;66.07;3.43;;;15.40;43.70;;;;;;5012595;28;20431;-77
2021/12/28 13:01:49;;;;;;;34.80;2.37;;;;;;;;;;5002501;28;20962;-77
2021/12/28 13:04:27;;;;;;;37.10;2.60;;;;;;;;;;5011334;28;20523;-77
2021/12/28 13:07:04;;;;;;;24.07;2.23;;;14.20;48.90;;;;;;5008983;28;20819;-77
2021/12/28 13:09:32;;;;;;;34.97;2.47;;;14.50;46.60;;;;;;5002826;28;20420;-76
2021/12/28 13:11:59;;;;;;;27.40;2.30;;;;;;;;;;5004312;28;20455;-76
2021/12/28 13:14:25;;;;;;;33.50;2.30;;;;;;;;;;5010526;28;20459;-75
2021/12/28 13:17:05;;;;;;;42.77;2.80;;;;;;;;;;5009102;28;20428;-77
2021/12/28 13:19:33;;;;;;;39.70;2.50;;;;;;;;;;5009740;28;20528;-76
2021/12/28 13:22:06;;;;;;;47.70;3.20;;;;;;;;;;5009680;28;20449;-76